Time;durP1;ratioP1;P1;durP2;ratioP2;P2;SDS_P1;SDS_P2;PMS_P1;PMS_P2;Temp;Humidity;BMP_temperature;BMP_pressure;BME280_temperature;BME280_humidity;BME280_pressure;Samples;Min_cycle;Max_cycle;Signal;HPM_P1;HPM_P2
2021/09/04 00:01:32;;;;;;;35.92;21.63;;;14.90;99.90;;;;;;4942183;28;39476;-80
2021/09/04 00:03:58;;;;;;;30.85;20.67;;;14.90;99.90;;;;;;4941537;28;38003;-79
2021/09/04 00:06:24;;;;;;;35.53;21.30;;;14.80;99.90;;;;;;4941478;28;37246;-80
2021/09/04 00:08:50;;;;;;;32.70;20.45;;;14.80;99.90;;;;;;4922011;28;39683;-80
2021/09/04 00:11:17;;;;;;;30.20;21.00;;;14.70;99.90;;;;;;4925761;28;39809;-80
2021/09/04 00:13:43;;;;;;;37.15;20.77;;;14.80;99.90;;;;;;4926761;28;38613;-80
2021/09/04 00:16:10;;;;;;;34.15;21.98;;;14.70;99.90;;;;;;4922508;28;38543;-80
2021/09/04 00:18:36;;;;;;;34.08;21.38;;;14.70;99.90;;;;;;4919590;28;40684;-80
2021/09/04 00:21:02;;;;;;;30.27;19.75;;;14.60;99.90;;;;;;4939324;28;38001;-79
2021/09/04 00:23:28;;;;;;;29.25;20.30;;;14.60;99.90;;;;;;4940592;28;38031;-80
2021/09/04 00:25:55;;;;;;;30.85;21.10;;;14.60;99.90;;;;;;4921390;28;39502;-79
2021/09/04 00:28:21;;;;;;;30.02;19.58;;;14.60;99.90;;;;;;4926939;28;39304;-79
2021/09/04 00:30:47;;;;;;;36.08;22.25;;;14.60;99.90;;;;;;4923266;28;39003;-80
2021/09/04 00:33:13;;;;;;;29.25;21.67;;;14.50;99.90;;;;;;4921956;28;38808;-80
2021/09/04 00:35:39;;;;;;;33.30;22.13;;;14.50;99.90;;;;;;4923154;28;38146;-80
2021/09/04 00:38:06;;;;;;;32.50;21.13;;;14.50;99.90;;;;;;4925081;28;39009;-80
2021/09/04 00:40:32;;;;;;;34.92;21.48;;;14.50;99.90;;;;;;4924426;28;38911;-80
2021/09/04 00:42:58;;;;;;;34.85;21.40;;;14.50;99.90;;;;;;4928634;28;39507;-79
2021/09/04 00:45:24;;;;;;;37.92;22.73;;;14.50;99.90;;;;;;4920442;28;37563;-79
2021/09/04 00:47:57;;;;;;;38.55;22.13;;;14.40;99.90;;;;;;4938044;28;39999;-80
2021/09/04 00:50:25;;;;;;;30.13;20.63;;;14.40;99.90;;;;;;4937727;28;38236;-79
2021/09/04 00:52:51;;;;;;;30.60;19.77;;;14.40;99.90;;;;;;4942071;28;38876;-79
2021/09/04 00:55:18;;;;;;;33.15;21.05;;;14.30;99.90;;;;;;4936979;28;37165;-79
2021/09/04 00:57:45;;;;;;;32.63;20.27;;;14.20;99.90;;;;;;4917609;28;39616;-79
2021/09/04 01:00:11;;;;;;;31.13;22.02;;;14.20;99.90;;;;;;4941340;28;38116;-79
2021/09/04 01:02:37;;;;;;;36.00;21.13;;;14.20;99.90;;;;;;4923512;28;38953;-79
2021/09/04 01:05:06;;;;;;;31.73;21.50;;;14.20;99.90;;;;;;4941551;28;37660;-78
2021/09/04 01:07:33;;;;;;;39.65;22.20;;;14.20;99.90;;;;;;4921626;28;48622;-79
2021/09/04 01:09:59;;;;;;;33.50;21.95;;;14.10;99.90;;;;;;4937410;28;37872;-79
2021/09/04 01:12:25;;;;;;;33.17;21.92;;;14.10;99.90;;;;;;4939837;28;39095;-79
2021/09/04 01:14:51;;;;;;;29.27;20.60;;;14.10;99.90;;;;;;4938542;28;34930;-79
2021/09/04 01:17:17;;;;;;;36.55;21.55;;;14.00;99.90;;;;;;4937261;28;38380;-80
2021/09/04 01:19:43;;;;;;;33.47;21.30;;;14.00;99.90;;;;;;4922241;28;38450;-79
2021/09/04 01:22:09;;;;;;;33.95;21.40;;;14.00;99.90;;;;;;4936903;28;38666;-79
2021/09/04 01:24:36;;;;;;;34.63;21.35;;;14.00;99.90;;;;;;4919610;28;38297;-80
2021/09/04 01:27:02;;;;;;;33.72;21.35;;;14.00;99.90;;;;;;4915089;28;39166;-78
2021/09/04 01:29:28;;;;;;;34.58;21.50;;;14.00;99.90;;;;;;4918446;28;38321;-80
2021/09/04 01:31:54;;;;;;;33.85;21.50;;;13.90;99.90;;;;;;4937668;28;39624;-79
2021/09/04 01:34:20;;;;;;;32.85;21.65;;;13.90;99.90;;;;;;4918049;28;39804;-79
2021/09/04 01:36:46;;;;;;;34.47;21.00;;;13.90;99.90;;;;;;4917357;28;40476;-79
2021/09/04 01:39:12;;;;;;;34.38;21.08;;;13.90;99.90;;;;;;4917001;28;39013;-79
2021/09/04 01:41:42;;;;;;;35.80;21.13;;;13.80;99.90;;;;;;4920756;28;38894;-79
2021/09/04 01:44:08;;;;;;;33.58;20.50;;;13.80;99.90;;;;;;4939360;28;37322;-79
2021/09/04 01:46:35;;;;;;;30.15;20.27;;;13.80;99.90;;;;;;4918382;28;39567;-79
2021/09/04 01:49:01;;;;;;;34.78;21.38;;;13.80;99.90;;;;;;4938232;28;38489;-79
2021/09/04 01:51:27;;;;;;;33.08;21.77;;;13.80;99.90;;;;;;4922866;28;45618;-80
2021/09/04 01:53:54;;;;;;;36.45;22.50;;;13.80;99.90;;;;;;4920176;28;41005;-80
2021/09/04 01:56:20;;;;;;;31.45;20.73;;;13.80;99.90;;;;;;4917293;28;41803;-78
2021/09/04 01:58:47;;;;;;;35.10;20.90;;;13.80;99.90;;;;;;4924168;28;38693;-80
2021/09/04 02:01:13;;;;;;;35.63;20.65;;;13.70;99.90;;;;;;4922309;28;36053;-77
2021/09/04 02:03:39;;;;;;;32.45;20.05;;;13.70;99.90;;;;;;4918251;28;37909;-80
2021/09/04 02:06:05;;;;;;;34.58;20.75;;;13.70;99.90;;;;;;4945511;28;38869;-79
2021/09/04 02:08:32;;;;;;;28.98;19.45;;;13.70;99.90;;;;;;4945740;28;38439;-80
2021/09/04 02:10:59;;;;;;;36.20;21.33;;;13.60;99.90;;;;;;4946501;28;38140;-80
2021/09/04 02:13:25;;;;;;;30.38;19.10;;;13.60;99.90;;;;;;4944988;28;38638;-78
2021/09/04 02:15:51;;;;;;;34.15;19.30;;;13.60;99.90;;;;;;4944739;28;39633;-81
2021/09/04 02:18:19;;;;;;;36.65;21.08;;;13.60;99.90;;;;;;4942824;28;39133;-78
2021/09/04 02:20:45;;;;;;;33.08;18.80;;;13.60;99.90;;;;;;4925319;28;38546;-78
2021/09/04 02:23:11;;;;;;;32.55;19.48;;;13.60;99.90;;;;;;4922830;28;37474;-78
2021/09/04 02:25:38;;;;;;;35.85;19.10;;;13.60;99.90;;;;;;4926156;28;39788;-77
2021/09/04 02:28:04;;;;;;;31.77;19.48;;;13.60;99.90;;;;;;4939028;28;37703;-79
2021/09/04 02:30:30;;;;;;;32.03;19.58;;;13.60;99.90;;;;;;4942546;28;38085;-78
2021/09/04 02:32:57;;;;;;;28.25;18.02;;;13.50;99.90;;;;;;4937230;28;36587;-78
2021/09/04 02:35:23;;;;;;;36.33;19.08;;;13.50;99.90;;;;;;4922792;28;39227;-77
2021/09/04 02:37:49;;;;;;;30.73;19.58;;;13.50;99.90;;;;;;4926205;28;39200;-78
2021/09/04 02:40:17;;;;;;;32.53;19.27;;;13.50;99.90;;;;;;4945442;28;38105;-78
2021/09/04 02:42:43;;;;;;;29.17;18.60;;;13.50;99.90;;;;;;4919340;28;39142;-78
2021/09/04 02:45:09;;;;;;;31.58;18.02;;;13.50;99.90;;;;;;4943543;28;39037;-78
2021/09/04 02:47:35;;;;;;;29.52;19.00;;;13.40;99.90;;;;;;4925515;28;38912;-79
2021/09/04 02:50:03;;;;;;;29.48;18.15;;;13.40;99.90;;;;;;4945398;28;38818;-79
2021/09/04 02:52:29;;;;;;;36.33;18.98;;;13.40;99.90;;;;;;4941117;28;38577;-79
2021/09/04 02:54:55;;;;;;;34.45;17.58;;;13.40;99.90;;;;;;4945278;28;38673;-78
2021/09/04 02:57:22;;;;;;;24.83;16.45;;;13.40;99.90;;;;;;4941832;28;38510;-79
2021/09/04 02:59:48;;;;;;;30.17;19.88;;;13.40;99.90;;;;;;4929201;28;37054;-79
2021/09/04 03:02:14;;;;;;;28.88;18.17;;;13.30;99.90;;;;;;4944822;28;38126;-79
2021/09/04 03:04:40;;;;;;;33.22;17.98;;;13.40;99.90;;;;;;4925621;28;40083;-78
2021/09/04 03:07:06;;;;;;;28.75;18.23;;;13.30;99.90;;;;;;4944843;28;38431;-78
2021/09/04 03:09:32;;;;;;;29.83;17.23;;;13.30;99.90;;;;;;4918915;28;39381;-79
2021/09/04 03:12:00;;;;;;;30.65;17.75;;;13.30;99.90;;;;;;4926799;28;36159;-79
2021/09/04 03:14:26;;;;;;;32.95;16.77;;;13.30;99.90;;;;;;4923670;28;46301;-79
2021/09/04 03:16:52;;;;;;;31.23;18.63;;;13.30;99.90;;;;;;4940625;28;38363;-79
2021/09/04 03:19:19;;;;;;;29.08;18.15;;;13.30;99.90;;;;;;4919853;28;39035;-79
2021/09/04 03:21:45;;;;;;;31.13;18.70;;;13.30;99.90;;;;;;4922443;28;38277;-79
2021/09/04 03:24:11;;;;;;;31.70;18.13;;;13.20;99.90;;;;;;4918381;28;35974;-79
2021/09/04 03:26:37;;;;;;;31.63;17.92;;;13.20;99.90;;;;;;4926133;28;39961;-78
2021/09/04 03:29:03;;;;;;;39.85;18.48;;;13.20;99.90;;;;;;4927645;28;39257;-79
2021/09/04 03:31:29;;;;;;;31.40;18.40;;;13.20;99.90;;;;;;4933101;28;35841;-79
2021/09/04 03:33:55;;;;;;;27.55;16.92;;;13.30;99.90;;;;;;4940932;28;39073;-79
2021/09/04 03:36:21;;;;;;;24.48;17.33;;;13.30;99.90;;;;;;4943125;28;38873;-78
2021/09/04 03:38:47;;;;;;;33.08;17.65;;;13.30;99.90;;;;;;4919481;28;38268;-79
2021/09/04 03:41:13;;;;;;;27.77;17.08;;;13.20;99.90;;;;;;4944013;28;41052;-78
2021/09/04 03:43:39;;;;;;;25.88;17.17;;;13.20;99.90;;;;;;4921914;28;39260;-79
2021/09/04 03:46:05;;;;;;;31.77;17.98;;;13.20;99.90;;;;;;4941442;28;41166;-79
2021/09/04 03:48:33;;;;;;;28.60;16.73;;;13.20;99.90;;;;;;4921585;28;38103;-78
2021/09/04 03:50:59;;;;;;;35.45;19.17;;;13.20;99.90;;;;;;4941654;28;38404;-78
2021/09/04 03:53:25;;;;;;;26.90;18.10;;;13.20;99.90;;;;;;4941137;28;38950;-79
2021/09/04 03:55:51;;;;;;;33.67;17.83;;;13.20;99.90;;;;;;4922894;28;37378;-78
2021/09/04 03:58:17;;;;;;;30.05;18.08;;;13.20;99.90;;;;;;4938691;28;39476;-78
2021/09/04 04:00:43;;;;;;;33.78;18.17;;;13.10;99.90;;;;;;4944068;28;38233;-78
2021/09/04 04:03:09;;;;;;;32.40;18.13;;;13.10;99.90;;;;;;4944384;28;38596;-78
2021/09/04 04:05:35;;;;;;;29.13;18.38;;;13.10;99.90;;;;;;4937909;28;37286;-77
2021/09/04 04:08:01;;;;;;;28.75;17.17;;;13.10;99.90;;;;;;4925279;28;36902;-77
2021/09/04 04:10:27;;;;;;;32.67;17.65;;;13.10;99.90;;;;;;4924462;28;36478;-78
2021/09/04 04:12:53;;;;;;;27.65;17.85;;;13.10;99.90;;;;;;4945211;28;38490;-78
2021/09/04 04:15:20;;;;;;;29.10;16.38;;;13.10;99.90;;;;;;4919096;28;37470;-78
2021/09/04 04:17:46;;;;;;;26.90;16.45;;;13.10;99.90;;;;;;4938640;28;39196;-79
2021/09/04 04:20:12;;;;;;;27.77;18.67;;;13.00;99.90;;;;;;4941559;28;36553;-78
2021/09/04 04:22:38;;;;;;;34.38;17.55;;;13.00;99.90;;;;;;4944141;28;39051;-78
2021/09/04 04:25:05;;;;;;;31.33;17.13;;;13.00;99.90;;;;;;4942827;28;38407;-80
2021/09/04 04:27:31;;;;;;;31.23;17.48;;;13.00;99.90;;;;;;4940611;28;47785;-77
2021/09/04 04:29:57;;;;;;;31.13;17.92;;;13.10;99.90;;;;;;4938647;28;38023;-78
2021/09/04 04:32:23;;;;;;;27.95;16.55;;;13.00;99.90;;;;;;4941456;28;38416;-78
2021/09/04 04:34:49;;;;;;;32.22;18.50;;;13.10;99.90;;;;;;4944320;28;39782;-78
2021/09/04 04:37:15;;;;;;;33.00;19.30;;;13.10;99.90;;;;;;4921550;28;38651;-78
2021/09/04 04:39:42;;;;;;;28.10;17.77;;;13.00;99.90;;;;;;4936293;28;37765;-78
2021/09/04 04:42:08;;;;;;;32.15;19.27;;;13.10;99.90;;;;;;4943887;28;38655;-79
2021/09/04 04:44:34;;;;;;;37.75;22.55;;;13.10;99.90;;;;;;4927312;28;40100;-78
2021/09/04 04:47:02;;;;;;;31.90;21.40;;;13.10;99.90;;;;;;4939839;28;38819;-78
2021/09/04 04:49:28;;;;;;;43.88;25.35;;;13.20;99.90;;;;;;4918490;28;47051;-77
2021/09/04 04:51:54;;;;;;;51.90;29.00;;;13.20;99.90;;;;;;4938681;28;38911;-78
2021/09/04 04:54:20;;;;;;;53.63;28.25;;;13.20;99.90;;;;;;4919605;28;39312;-78
2021/09/04 04:56:46;;;;;;;56.10;31.98;;;13.20;99.90;;;;;;4942756;28;39119;-79
2021/09/04 04:59:12;;;;;;;57.15;33.40;;;13.20;99.90;;;;;;4938051;28;36075;-78
2021/09/04 05:01:38;;;;;;;52.20;30.75;;;13.20;99.90;;;;;;4942352;28;38880;-78
2021/09/04 05:04:04;;;;;;;49.47;30.90;;;13.20;99.90;;;;;;4916568;28;39295;-78
2021/09/04 05:06:30;;;;;;;51.35;31.98;;;13.20;99.90;;;;;;4923884;28;36946;-78
2021/09/04 05:08:56;;;;;;;49.72;30.70;;;13.30;99.90;;;;;;4939002;28;37106;-78
2021/09/04 05:11:22;;;;;;;50.40;30.55;;;13.30;99.90;;;;;;4938343;28;38429;-78
2021/09/04 05:13:48;;;;;;;50.58;28.20;;;13.30;99.90;;;;;;4923370;28;40989;-78
2021/09/04 05:16:15;;;;;;;47.63;28.27;;;13.30;99.90;;;;;;4922260;28;39991;-78
2021/09/04 05:18:42;;;;;;;49.72;26.25;;;13.30;99.90;;;;;;4946632;28;37528;-78
2021/09/04 05:21:08;;;;;;;45.55;26.42;;;13.40;99.90;;;;;;4939872;28;39502;-78
2021/09/04 05:23:34;;;;;;;42.45;25.15;;;13.40;99.90;;;;;;4921874;28;39341;-78
2021/09/04 05:26:00;;;;;;;40.40;23.45;;;13.40;99.90;;;;;;4942758;28;38089;-78
2021/09/04 05:28:26;;;;;;;34.85;22.23;;;13.40;99.90;;;;;;4943576;28;38529;-78
2021/09/04 05:30:53;;;;;;;39.28;22.50;;;13.40;99.90;;;;;;4943769;28;38859;-78
2021/09/04 05:33:19;;;;;;;43.55;23.55;;;13.40;99.90;;;;;;4923486;28;40350;-77
2021/09/04 05:35:45;;;;;;;42.58;23.67;;;13.40;99.90;;;;;;4924701;28;39925;-78
2021/09/04 05:38:11;;;;;;;39.78;22.40;;;13.40;99.90;;;;;;4942852;28;37376;-78
2021/09/04 05:40:37;;;;;;;44.95;25.38;;;13.40;99.90;;;;;;4941423;28;38795;-77
2021/09/04 05:43:03;;;;;;;36.40;24.50;;;13.40;99.90;;;;;;4926089;28;39239;-77
2021/09/04 05:45:29;;;;;;;40.80;23.92;;;13.40;99.90;;;;;;4939655;28;39189;-78
2021/09/04 05:47:55;;;;;;;33.72;21.42;;;13.50;99.90;;;;;;4942860;28;37546;-78
2021/09/04 05:50:22;;;;;;;40.20;24.98;;;13.50;99.90;;;;;;4942133;28;38935;-78
2021/09/04 05:52:48;;;;;;;34.55;21.90;;;13.50;99.90;;;;;;4919769;28;39823;-77
2021/09/04 05:55:14;;;;;;;42.53;25.77;;;13.50;99.90;;;;;;4923822;28;38461;-78
2021/09/04 05:57:40;;;;;;;38.97;23.95;;;13.50;99.90;;;;;;4925460;28;37692;-77
2021/09/04 06:00:06;;;;;;;41.42;23.58;;;13.50;99.90;;;;;;4920182;28;39685;-78
2021/09/04 06:02:32;;;;;;;35.05;22.88;;;13.50;99.90;;;;;;4941486;28;47028;-78
2021/09/04 06:04:58;;;;;;;42.78;24.27;;;13.60;99.90;;;;;;4945131;28;37320;-77
2021/09/04 06:07:24;;;;;;;34.45;22.45;;;13.60;99.90;;;;;;4920735;28;38298;-79
2021/09/04 06:09:50;;;;;;;38.53;23.63;;;13.60;99.90;;;;;;4938343;28;39491;-78
2021/09/04 06:12:17;;;;;;;35.55;22.55;;;13.60;99.90;;;;;;4916189;28;40209;-77
2021/09/04 06:14:43;;;;;;;41.45;23.55;;;13.60;99.90;;;;;;4923616;28;38945;-77
2021/09/04 06:17:09;;;;;;;37.33;24.17;;;13.60;99.90;;;;;;4926527;28;36458;-78
2021/09/04 06:19:35;;;;;;;40.13;24.67;;;13.60;99.90;;;;;;4937088;28;41062;-78
2021/09/04 06:22:01;;;;;;;38.30;23.98;;;13.70;99.90;;;;;;4919881;28;39170;-78
2021/09/04 06:24:27;;;;;;;39.85;23.83;;;13.70;99.90;;;;;;4927019;28;47026;-78
2021/09/04 06:26:53;;;;;;;39.20;24.52;;;13.80;99.90;;;;;;4927667;28;37858;-78
2021/09/04 06:29:19;;;;;;;40.30;22.98;;;13.80;99.90;;;;;;4924417;28;39730;-78
2021/09/04 06:31:45;;;;;;;35.70;21.67;;;13.90;99.90;;;;;;4928015;28;38898;-78
2021/09/04 06:34:11;;;;;;;37.05;21.58;;;13.90;99.90;;;;;;4943867;28;37982;-78
2021/09/04 06:36:37;;;;;;;37.53;22.05;;;13.90;99.90;;;;;;4927838;28;37855;-78
2021/09/04 06:39:03;;;;;;;34.92;22.42;;;13.90;99.90;;;;;;4915699;28;39522;-78
2021/09/04 06:41:30;;;;;;;33.03;21.98;;;13.90;99.90;;;;;;4923464;28;39574;-78
2021/09/04 06:43:56;;;;;;;37.05;21.98;;;13.90;99.90;;;;;;4928500;28;38423;-78
2021/09/04 06:46:22;;;;;;;39.88;23.60;;;13.90;99.90;;;;;;4930804;28;36263;-78
2021/09/04 06:48:48;;;;;;;32.00;21.27;;;13.80;99.90;;;;;;4926357;28;38318;-77
2021/09/04 06:51:14;;;;;;;37.63;22.75;;;13.90;99.90;;;;;;4928517;28;37399;-78
2021/09/04 06:53:41;;;;;;;37.33;22.48;;;13.90;99.90;;;;;;4930827;28;39380;-77
2021/09/04 06:56:07;;;;;;;35.35;21.45;;;13.90;99.90;;;;;;4939828;28;37357;-77
2021/09/04 06:58:33;;;;;;;39.53;23.35;;;14.00;99.90;;;;;;4927190;28;39068;-77
2021/09/04 07:01:00;;;;;;;31.58;20.10;;;14.00;99.90;;;;;;4947041;28;38211;-77
2021/09/04 07:03:26;;;;;;;35.13;22.05;;;14.10;99.90;;;;;;4925371;28;38449;-77
2021/09/04 07:05:53;;;;;;;33.10;20.63;;;14.10;99.90;;;;;;4944170;28;37196;-78
2021/09/04 07:08:19;;;;;;;28.60;19.52;;;14.10;99.90;;;;;;4922555;28;37654;-78
2021/09/04 07:10:45;;;;;;;27.30;17.85;;;14.10;99.90;;;;;;4942842;28;38358;-79
2021/09/04 07:13:11;;;;;;;31.40;18.17;;;14.00;99.90;;;;;;4941502;28;39661;-79
2021/09/04 07:15:37;;;;;;;30.45;18.52;;;14.00;99.90;;;;;;4945575;28;37588;-79
2021/09/04 07:18:03;;;;;;;31.95;19.55;;;14.00;99.90;;;;;;4947160;28;38801;-78
2021/09/04 07:20:29;;;;;;;40.17;20.10;;;14.10;99.90;;;;;;4922021;28;40562;-78
2021/09/04 07:22:55;;;;;;;34.80;20.40;;;14.10;99.90;;;;;;4930769;28;39317;-78
2021/09/04 07:25:21;;;;;;;36.55;19.38;;;14.20;99.90;;;;;;4948078;28;38396;-79
2021/09/04 07:27:48;;;;;;;32.45;20.13;;;14.20;99.90;;;;;;4927251;28;39968;-78
2021/09/04 07:30:16;;;;;;;32.10;19.65;;;14.20;99.90;;;;;;4929777;28;38921;-79
2021/09/04 07:32:43;;;;;;;34.03;20.95;;;14.30;99.90;;;;;;4926607;28;39509;-78
2021/09/04 07:35:10;;;;;;;28.27;19.10;;;14.30;99.90;;;;;;4944530;28;37595;-79
2021/09/04 07:37:36;;;;;;;33.45;20.65;;;14.40;99.90;;;;;;4945752;28;38869;-78
2021/09/04 07:40:03;;;;;;;31.55;18.88;;;14.40;99.90;;;;;;4946633;28;38469;-79
2021/09/04 07:42:29;;;;;;;30.27;18.67;;;14.50;99.90;;;;;;4920964;28;41365;-79
2021/09/04 07:44:56;;;;;;;29.10;17.85;;;14.60;99.90;;;;;;4941873;28;37495;-78
2021/09/04 07:47:22;;;;;;;35.53;19.02;;;14.60;99.90;;;;;;4937132;28;38958;-78
2021/09/04 07:49:48;;;;;;;32.28;18.65;;;14.70;99.90;;;;;;4932868;28;40320;-78
2021/09/04 07:52:14;;;;;;;32.72;18.67;;;14.90;99.90;;;;;;4930812;28;39173;-79
2021/09/04 07:54:40;;;;;;;25.55;17.70;;;14.80;99.90;;;;;;4949722;28;38748;-79
2021/09/04 07:57:06;;;;;;;30.95;18.27;;;14.80;99.90;;;;;;4926949;28;40776;-78
2021/09/04 07:59:32;;;;;;;27.02;18.13;;;14.90;99.90;;;;;;4943282;28;38409;-78
2021/09/04 08:01:58;;;;;;;30.92;18.75;;;14.90;99.90;;;;;;4923470;28;38141;-78
2021/09/04 08:04:24;;;;;;;31.15;17.73;;;15.00;99.90;;;;;;4940263;28;37458;-78
2021/09/04 08:06:50;;;;;;;23.85;17.65;;;15.00;99.90;;;;;;4937584;28;38712;-78
2021/09/04 08:09:16;;;;;;;23.90;16.77;;;15.00;99.90;;;;;;4921597;28;39095;-78
2021/09/04 08:11:43;;;;;;;28.00;17.73;;;15.00;99.90;;;;;;4925069;28;38695;-78
2021/09/04 08:14:09;;;;;;;24.52;16.48;;;15.00;99.90;;;;;;4928284;28;37851;-81
2021/09/04 08:16:36;;;;;;;26.15;15.10;;;15.00;99.90;;;;;;4925794;28;39146;-79
2021/09/04 08:19:03;;;;;;;25.30;16.40;;;15.00;99.90;;;;;;4944840;28;38272;-78
2021/09/04 08:21:29;;;;;;;27.95;17.73;;;15.00;99.90;;;;;;4924442;28;39802;-79
2021/09/04 08:23:55;;;;;;;25.45;16.25;;;15.10;99.90;;;;;;4938519;28;37518;-79
2021/09/04 08:26:21;;;;;;;23.05;15.45;;;15.10;99.90;;;;;;4924704;28;39320;-79
2021/09/04 08:28:47;;;;;;;22.27;14.50;;;15.20;99.90;;;;;;4924279;28;38579;-79
2021/09/04 08:31:14;;;;;;;23.95;15.40;;;15.20;99.90;;;;;;4942155;28;37281;-79
2021/09/04 08:33:40;;;;;;;23.27;15.63;;;15.40;99.90;;;;;;4945102;28;37637;-79
2021/09/04 08:36:06;;;;;;;24.90;15.43;;;15.50;99.90;;;;;;4935862;28;40462;-79
2021/09/04 08:38:32;;;;;;;25.73;14.40;;;15.40;99.90;;;;;;4944940;28;39228;-79
2021/09/04 08:40:58;;;;;;;20.50;14.27;;;15.50;99.90;;;;;;4926087;28;39580;-79
2021/09/04 08:43:24;;;;;;;19.85;13.60;;;15.70;99.90;;;;;;4944590;28;38058;-78
2021/09/04 08:45:50;;;;;;;22.58;13.88;;;15.90;99.90;;;;;;4943014;28;38725;-79
2021/09/04 08:48:20;;;;;;;21.60;13.65;;;15.90;99.90;;;;;;4936802;28;38790;-78
2021/09/04 08:50:46;;;;;;;19.10;14.27;;;15.90;99.90;;;;;;4947570;28;39010;-79
2021/09/04 08:53:12;;;;;;;21.92;14.32;;;16.10;99.90;;;;;;4945873;28;38690;-78
2021/09/04 08:55:38;;;;;;;20.15;12.45;;;16.20;99.90;;;;;;4924562;28;39835;-79
2021/09/04 08:58:04;;;;;;;18.17;13.88;;;16.40;99.90;;;;;;4921606;28;40147;-79
2021/09/04 09:00:38;;;;;;;19.85;13.82;;;16.60;99.90;;;;;;4924757;28;37551;-79
2021/09/04 09:03:06;;;;;;;18.05;13.10;;;16.50;99.90;;;;;;4924835;28;38034;-78
2021/09/04 09:05:41;;;;;;;20.10;13.93;;;16.60;99.90;;;;;;4939003;28;39480;-78
2021/09/04 09:08:15;;;;;;;17.00;13.27;;;16.60;99.90;;;;;;4927332;28;38669;-79
2021/09/04 09:10:41;;;;;;;18.75;12.23;;;16.60;99.90;;;;;;4928484;28;37385;-79
2021/09/04 09:13:07;;;;;;;17.98;12.75;;;16.90;99.90;;;;;;4946323;28;36724;-79
2021/09/04 09:15:37;;;;;;;19.38;13.07;;;17.10;99.90;;;;;;4942098;28;39306;-79
2021/09/04 09:18:10;;;;;;;18.65;12.85;;;17.10;99.90;;;;;;4941582;28;38281;-79
2021/09/04 09:20:37;;;;;;;17.83;13.15;;;16.80;99.90;;;;;;4935295;28;38038;-79
2021/09/04 09:23:06;;;;;;;18.80;13.70;;;16.80;99.90;;;;;;4929318;28;38925;-78
2021/09/04 09:25:35;;;;;;;17.65;13.32;;;16.70;99.90;;;;;;4946506;28;39971;-79
2021/09/04 09:28:12;;;;;;;19.48;13.98;;;16.60;99.90;;;;;;4944950;28;39117;-78
2021/09/04 09:31:00;;;;;;;20.27;14.32;;;16.40;99.90;;;;;;4925212;28;39722;-78
2021/09/04 09:33:27;;;;;;;24.88;13.95;;;16.40;99.90;;;;;;4927499;28;37870;-78
2021/09/04 09:35:56;;;;;;;18.33;13.07;;;16.40;99.90;;;;;;4926524;28;39868;-79
2021/09/04 09:38:22;;;;;;;20.45;14.73;;;16.60;99.90;;;;;;4943652;28;38301;-78
2021/09/04 09:40:52;;;;;;;22.35;14.63;;;16.60;99.90;;;;;;4942096;28;38803;-78
2021/09/04 09:43:23;;;;;;;21.25;14.38;;;16.60;99.90;;;;;;4925340;28;38180;-79
2021/09/04 09:45:51;;;;;;;20.50;14.18;;;16.80;99.90;;;;;;4925737;28;39145;-78
2021/09/04 09:48:29;;;;;;;20.40;14.02;;;16.90;99.90;;;;;;4939049;28;39219;-79
2021/09/04 09:50:57;;;;;;;17.90;14.13;;;17.00;99.90;;;;;;4940775;28;38184;-79
2021/09/04 09:53:25;;;;;;;19.67;14.27;;;17.20;99.90;;;;;;4925662;28;38699;-79
2021/09/04 09:55:53;;;;;;;20.10;13.90;;;17.40;99.90;;;;;;4925621;28;39755;-78
2021/09/04 09:58:21;;;;;;;17.85;13.60;;;17.40;99.90;;;;;;4944564;28;38441;-79
2021/09/04 10:00:49;;;;;;;18.85;14.85;;;17.60;99.90;;;;;;4924770;28;38263;-79
2021/09/04 10:03:18;;;;;;;18.42;13.45;;;17.30;99.90;;;;;;4927847;28;39073;-79
2021/09/04 10:05:46;;;;;;;17.00;14.10;;;17.20;99.90;;;;;;4929089;28;39518;-79
2021/09/04 10:08:16;;;;;;;20.83;13.93;;;17.30;99.90;;;;;;4927928;28;38861;-78
2021/09/04 10:10:43;;;;;;;21.38;14.50;;;17.30;99.90;;;;;;4943147;28;38913;-79
2021/09/04 10:13:14;;;;;;;21.85;14.23;;;17.20;99.90;;;;;;4928327;28;37821;-78
2021/09/04 10:15:45;;;;;;;23.38;13.68;;;17.00;99.90;;;;;;4942043;28;39748;-78
2021/09/04 10:18:12;;;;;;;20.47;14.77;;;17.10;99.90;;;;;;4923138;28;39207;-79
2021/09/04 10:20:38;;;;;;;19.08;15.43;;;17.00;99.90;;;;;;4948296;28;38039;-78
2021/09/04 10:23:28;;;;;;;20.08;14.25;;;16.90;99.90;;;;;;4942221;28;37683;-78
2021/09/04 10:25:55;;;;;;;22.88;15.43;;;16.90;99.90;;;;;;4928324;28;40437;-78
2021/09/04 10:28:21;;;;;;;22.25;14.75;;;17.00;99.90;;;;;;4924587;28;38810;-79
2021/09/04 10:30:54;;;;;;;23.17;14.30;;;17.00;99.90;;;;;;4947230;28;38131;-79
2021/09/04 10:33:26;;;;;;;22.35;15.13;;;17.20;99.90;;;;;;4940876;28;38170;-79
2021/09/04 10:35:57;;;;;;;19.98;14.85;;;17.20;99.90;;;;;;4926493;28;39472;-80
2021/09/04 10:38:23;;;;;;;19.00;14.25;;;17.50;99.90;;;;;;4927239;28;39198;-79
2021/09/04 10:40:52;;;;;;;20.83;14.82;;;17.70;99.90;;;;;;4928055;28;39158;-78
2021/09/04 10:43:20;;;;;;;22.13;15.00;;;17.90;99.90;;;;;;4931495;28;37968;-78
2021/09/04 10:45:51;;;;;;;23.58;15.30;;;18.20;99.90;;;;;;4929195;28;39056;-79
2021/09/04 10:48:21;;;;;;;20.05;13.20;;;18.40;99.90;;;;;;4926181;28;39059;-79
2021/09/04 10:51:01;;;;;;;19.83;15.05;;;18.30;99.90;;;;;;4942073;28;38483;-79
2021/09/04 10:54:00;;;;;;;19.15;14.25;;;18.30;99.90;;;;;;4919846;28;47152;-79
2021/09/04 10:56:30;;;;;;;22.70;15.90;;;18.40;99.90;;;;;;4901714;28;39367;-79
2021/09/04 10:58:57;;;;;;;18.88;14.80;;;18.50;99.90;;;;;;4943924;28;38292;-79
2021/09/04 11:01:52;;;;;;;23.92;15.40;;;18.40;99.90;;;;;;4941347;28;39029;-79
2021/09/04 11:04:18;;;;;;;22.92;15.05;;;18.40;99.90;;;;;;4926236;28;37703;-79
2021/09/04 11:06:49;;;;;;;22.85;15.35;;;18.40;99.90;;;;;;4942388;28;39013;-79
2021/09/04 11:09:17;;;;;;;24.20;16.33;;;18.80;99.90;;;;;;4940495;28;38481;-79
2021/09/04 11:11:43;;;;;;;19.70;15.43;;;19.10;99.90;;;;;;4927065;28;39600;-78
2021/09/04 11:14:28;;;;;;;19.90;13.75;;;19.40;99.90;;;;;;4937595;28;38212;-79
2021/09/04 11:16:55;;;;;;;20.50;14.25;;;19.50;99.90;;;;;;4948846;28;39855;-78
2021/09/04 11:19:23;;;;;;;24.45;16.33;;;19.60;99.90;;;;;;4946958;28;38420;-79
2021/09/04 11:22:09;;;;;;;20.52;15.75;;;19.60;99.90;;;;;;4946441;28;37893;-79
2021/09/04 11:24:41;;;;;;;18.85;14.40;;;19.80;99.90;;;;;;4922938;28;47632;-78
2021/09/04 11:27:09;;;;;;;18.65;14.55;;;19.80;99.90;;;;;;4947152;28;38891;-79
2021/09/04 11:29:44;;;;;;;20.65;15.55;;;20.10;99.90;;;;;;4945950;28;38570;-78
2021/09/04 11:32:12;;;;;;;17.85;14.45;;;19.90;99.90;;;;;;4927475;28;38985;-78
2021/09/04 11:34:46;;;;;;;20.15;15.25;;;20.10;99.90;;;;;;4928104;28;38283;-78
2021/09/04 11:37:28;;;;;;;22.65;15.55;;;19.90;99.90;;;;;;4930839;28;37689;-77
2021/09/04 11:39:58;;;;;;;21.00;15.75;;;20.20;99.90;;;;;;4921494;28;38398;-78
2021/09/04 11:42:27;;;;;;;18.77;13.93;;;20.30;99.90;;;;;;4938787;28;38598;-78
2021/09/04 11:44:59;;;;;;;19.80;14.77;;;20.40;99.90;;;;;;4928386;28;37890;-78
2021/09/04 11:47:26;;;;;;;;;;;20.70;99.90;;;;;;4946440;28;39671;-78
2021/09/04 11:49:55;;;;;;;21.67;15.35;;;20.60;99.90;;;;;;4918859;29;37226;-78
2021/09/04 11:52:24;;;;;;;24.40;15.68;;;20.50;99.90;;;;;;4944499;28;39669;-78
2021/09/04 11:55:01;;;;;;;22.90;16.23;;;20.20;99.90;;;;;;4937118;28;39144;-78
2021/09/04 11:57:29;;;;;;;19.60;15.32;;;20.20;99.90;;;;;;4947140;28;38652;-78
2021/09/04 11:59:59;;;;;;;16.95;14.38;;;20.60;99.90;;;;;;4927417;28;39318;-78
2021/09/04 12:02:25;;;;;;;23.08;16.50;;;21.00;99.90;;;;;;4941301;28;38328;-78
2021/09/04 12:04:52;;;;;;;21.27;15.27;;;20.90;99.90;;;;;;4941729;28;38604;-78
2021/09/04 12:07:18;;;;;;;24.67;15.85;;;20.90;99.90;;;;;;4943900;28;37101;-78
2021/09/04 12:09:44;;;;;;;18.02;15.15;;;21.00;99.90;;;;;;4944610;28;39407;-78
2021/09/04 12:12:11;;;;;;;20.33;13.95;;;21.30;99.90;;;;;;4940933;28;38256;-78
2021/09/04 12:14:37;;;;;;;19.20;13.73;;;21.30;99.90;;;;;;4918837;28;36930;-78
2021/09/04 12:17:06;;;;;;;22.13;15.80;;;21.50;99.90;;;;;;4943243;28;38535;-78
2021/09/04 12:19:39;;;;;;;22.05;15.48;;;21.80;99.90;;;;;;4941647;28;39352;-78
2021/09/04 12:22:05;;;;;;;19.02;14.25;;;21.50;99.90;;;;;;4911191;28;38872;-78
2021/09/04 12:24:32;;;;;;;21.55;15.82;;;21.50;99.90;;;;;;4944822;28;38012;-78
2021/09/04 12:26:59;;;;;;;20.73;14.50;;;21.50;99.90;;;;;;4928764;28;39151;-78
2021/09/04 12:29:30;;;;;;;21.98;14.10;;;21.70;99.90;;;;;;4951947;28;38236;-78